createdAt,value
2018-08-22T00:01:55.464Z,82.02
2018-08-22T00:04:59.872Z,82.49
2018-08-22T00:08:04.164Z,82.33
2018-08-22T00:11:08.455Z,82.88
2018-08-22T00:14:12.741Z,82.23
2018-08-22T00:17:17.056Z,83.15
2018-08-22T00:20:21.319Z,82.86
2018-08-22T00:23:25.571Z,83.37
2018-08-22T00:26:29.849Z,82.89
2018-08-22T00:29:34.238Z,83.40
2018-08-22T00:32:38.478Z,83.96
2018-08-22T00:35:42.638Z,83.82
2018-08-22T00:38:46.921Z,83.54
2018-08-22T00:41:51.151Z,83.97
2018-08-22T00:44:55.451Z,84.47
2018-08-22T00:47:59.715Z,84.12
2018-08-22T00:51:03.983Z,83.72
2018-08-22T00:54:08.319Z,83.58
2018-08-22T00:57:12.562Z,83.65
2018-08-22T01:00:16.862Z,83.31
2018-08-22T01:03:21.158Z,83.41
2018-08-22T01:06:25.755Z,83.40
2018-08-22T01:09:29.826Z,83.40
2018-08-22T01:12:34.087Z,83.52
2018-08-22T01:15:38.361Z,83.06
2018-08-22T01:18:42.676Z,83.38
2018-08-22T01:21:46.998Z,82.61
2018-08-22T01:24:51.325Z,82.62
2018-08-22T01:27:55.561Z,82.70
2018-08-22T01:30:59.847Z,82.14
2018-08-22T01:34:04.106Z,81.42
2018-08-22T01:37:08.326Z,81.92
2018-08-22T01:40:12.534Z,81.35
2018-08-22T01:43:16.910Z,80.74
2018-08-22T01:46:21.246Z,80.50
2018-08-22T01:49:25.481Z,80.75
2018-08-22T01:52:29.727Z,80.07
2018-08-22T01:55:33.978Z,80.00
2018-08-22T01:58:38.143Z,79.99
2018-08-22T02:01:42.451Z,79.81
2018-08-22T02:04:46.705Z,79.97
2018-08-22T02:07:51.067Z,79.45
2018-08-22T02:10:55.412Z,79.29
2018-08-22T02:13:59.699Z,79.61
2018-08-22T02:17:03.975Z,78.55
2018-08-22T02:20:08.283Z,79.14
2018-08-22T02:23:12.563Z,78.22
2018-08-22T02:26:16.879Z,78.27
2018-08-22T02:29:21.206Z,78.56
2018-08-22T02:32:25.524Z,77.69
2018-08-22T02:35:29.843Z,77.58
2018-08-22T02:38:34.301Z,77.57
2018-08-22T02:41:38.621Z,77.61
2018-08-22T02:44:42.900Z,77.73
2018-08-22T02:47:47.137Z,78.00
2018-08-22T02:50:51.242Z,77.79
2018-08-22T02:53:55.567Z,77.70
2018-08-22T02:56:59.871Z,78.15
2018-08-22T03:00:04.216Z,77.96
2018-08-22T03:03:08.479Z,78.51
2018-08-22T03:06:12.847Z,78.25
2018-08-22T03:09:17.143Z,78.13
2018-08-22T03:12:21.476Z,78.10
2018-08-22T03:15:25.796Z,78.10
2018-08-22T03:18:30.112Z,78.30
2018-08-22T03:21:34.600Z,77.48
2018-08-22T03:24:38.859Z,77.39
2018-08-22T03:27:43.180Z,77.04
2018-08-22T03:30:47.807Z,76.91
2018-08-22T03:33:52.167Z,76.83
2018-08-22T03:36:56.463Z,76.78
2018-08-22T03:40:00.767Z,77.25
2018-08-22T03:43:05.103Z,77.00
2018-08-22T03:46:09.422Z,76.95
2018-08-22T03:49:13.749Z,77.03
2018-08-22T03:52:18.067Z,76.50
2018-08-22T03:55:22.386Z,76.77
2018-08-22T03:58:26.701Z,77.12
2018-08-22T04:01:31.060Z,77.19
2018-08-22T04:04:35.314Z,77.21
2018-08-22T04:07:39.329Z,76.86
2018-08-22T04:10:43.781Z,76.93
2018-08-22T04:13:48.138Z,77.48
2018-08-22T04:16:52.423Z,77.13
2018-08-22T04:19:56.687Z,77.73
2018-08-22T04:23:01.884Z,78.00
2018-08-22T04:26:06.184Z,78.00
2018-08-22T04:29:10.440Z,78.06
2018-08-22T04:32:14.694Z,77.87
2018-08-22T04:35:19.075Z,78.36
2018-08-22T04:38:23.412Z,78.50
2018-08-22T04:41:27.698Z,78.76
2018-08-22T04:44:31.979Z,78.78
2018-08-22T04:47:36.261Z,78.70
2018-08-22T04:50:40.580Z,78.28
2018-08-22T04:53:44.888Z,78.53
2018-08-22T04:56:49.268Z,79.06
2018-08-22T04:59:53.352Z,78.33
2018-08-22T05:02:57.621Z,78.71
2018-08-22T05:06:01.866Z,78.68
2018-08-22T05:09:08.408Z,78.25
2018-08-22T05:12:12.776Z,79.00
2018-08-22T05:15:16.929Z,78.20
2018-08-22T05:18:21.724Z,78.31
2018-08-22T05:21:26.006Z,78.28
2018-08-22T05:24:30.322Z,77.83
2018-08-22T05:27:34.668Z,78.19
2018-08-22T05:30:39.093Z,78.03
2018-08-22T05:33:43.472Z,78.05
2018-08-22T05:36:47.714Z,77.87
2018-08-22T05:39:51.944Z,77.73
2018-08-22T05:42:56.278Z,77.31
2018-08-22T05:46:00.608Z,77.40
2018-08-22T05:49:04.984Z,76.86
2018-08-22T05:52:09.224Z,76.21
2018-08-22T05:55:13.542Z,75.98
2018-08-22T05:58:17.864Z,75.38
2018-08-22T06:01:22.206Z,74.88
2018-08-22T06:04:26.476Z,75.13
2018-08-22T06:07:30.849Z,75.00
2018-08-22T06:10:35.150Z,74.84
2018-08-22T06:13:39.300Z,74.52
2018-08-22T06:16:43.589Z,73.70
2018-08-22T06:19:49.186Z,73.10
2018-08-22T06:22:53.564Z,72.86
2018-08-22T06:25:57.883Z,72.24
2018-08-22T06:29:02.207Z,71.75
2018-08-22T06:32:06.509Z,71.35
2018-08-22T06:35:10.833Z,71.25
2018-08-22T06:38:15.169Z,71.54
2018-08-22T06:41:19.497Z,70.24
2018-08-22T06:44:23.849Z,69.61
2018-08-22T06:47:28.039Z,69.09
2018-08-22T06:50:32.343Z,68.11
2018-08-22T06:53:36.679Z,69.04
2018-08-22T06:56:40.767Z,67.39
2018-08-22T06:59:45.007Z,67.38
2018-08-22T07:02:49.367Z,66.76
2018-08-22T07:05:53.713Z,65.74
2018-08-22T07:08:58.165Z,65.54
2018-08-22T07:12:02.436Z,65.56
2018-08-22T07:15:07.697Z,65.57
2018-08-22T07:18:12.032Z,64.61
2018-08-22T07:21:16.404Z,64.03
2018-08-22T07:24:20.770Z,63.03
2018-08-22T07:27:25.177Z,61.71
2018-08-22T07:30:29.497Z,61.47
2018-08-22T07:33:33.824Z,60.87
2018-08-22T07:36:38.246Z,59.91
2018-08-22T07:39:42.531Z,59.66
2018-08-22T07:42:46.883Z,59.09
2018-08-22T07:45:51.780Z,59.25
2018-08-22T07:48:56.124Z,58.76
2018-08-22T07:52:00.550Z,59.44
2018-08-22T07:55:04.872Z,58.26
2018-08-22T07:58:09.188Z,58.13
2018-08-22T08:01:13.491Z,58.09
2018-08-22T08:04:17.829Z,58.29
2018-08-22T08:07:22.162Z,58.58
2018-08-22T08:10:31.521Z,57.69
2018-08-22T08:13:35.814Z,57.09
2018-08-22T08:16:40.290Z,57.50
2018-08-22T08:19:44.578Z,57.20
2018-08-22T08:22:48.861Z,57.30
2018-08-22T08:25:53.203Z,58.14
2018-08-22T08:28:57.617Z,57.76
2018-08-22T08:32:01.928Z,56.24
2018-08-22T08:35:06.228Z,56.35
2018-08-22T08:38:11.707Z,56.16
2018-08-22T08:41:16.017Z,56.31
2018-08-22T08:44:20.332Z,55.69
2018-08-22T08:47:25.121Z,56.57
2018-08-22T08:50:29.503Z,55.31
2018-08-22T08:53:33.924Z,56.20
2018-08-22T08:56:38.168Z,56.10
2018-08-22T08:59:42.532Z,56.35
2018-08-22T09:02:46.884Z,54.99
2018-08-22T09:05:51.170Z,54.71
2018-08-22T09:08:55.528Z,55.24
2018-08-22T09:12:00.997Z,55.69
2018-08-22T09:15:06.358Z,54.87
2018-08-22T09:18:10.960Z,55.69
2018-08-22T09:21:15.261Z,54.68
2018-08-22T09:24:19.535Z,53.65
2018-08-22T09:27:23.854Z,54.73
2018-08-22T09:30:28.190Z,53.87
2018-08-22T09:33:32.516Z,53.39
2018-08-22T09:36:36.838Z,53.98
2018-08-22T09:39:41.192Z,53.10
2018-08-22T09:42:45.485Z,53.10
2018-08-22T09:45:49.826Z,52.89
2018-08-22T09:48:54.192Z,52.53
2018-08-22T09:51:58.500Z,52.75
2018-08-22T09:55:04.236Z,52.07
2018-08-22T09:58:08.610Z,51.67
2018-08-22T10:01:18.061Z,52.79
2018-08-22T10:04:22.329Z,51.33
2018-08-22T10:07:26.742Z,51.38
2018-08-22T10:10:30.985Z,51.66
2018-08-22T10:13:35.326Z,50.22
2018-08-22T10:16:39.686Z,50.45
2018-08-22T10:19:44.161Z,50.45
2018-08-22T10:22:48.414Z,50.40
2018-08-22T10:25:52.717Z,50.86
2018-08-22T10:28:57.122Z,50.67
2018-08-22T10:32:01.563Z,50.23
2018-08-22T10:35:06.583Z,50.89
2018-08-22T10:38:10.872Z,50.07
2018-08-22T10:41:15.155Z,49.00
2018-08-22T10:44:19.544Z,49.31
2018-08-22T10:47:23.952Z,48.58
2018-08-22T10:50:28.354Z,49.90
2018-08-22T10:53:32.695Z,49.65
2018-08-22T10:56:37.015Z,49.09
2018-08-22T10:59:41.444Z,48.44
2018-08-22T11:02:45.864Z,49.04
2018-08-22T11:05:50.198Z,48.84
2018-08-22T11:08:54.502Z,47.03
2018-08-22T11:11:58.803Z,47.75
2018-08-22T11:15:03.156Z,47.36
2018-08-22T11:18:07.470Z,47.97
2018-08-22T11:21:28.789Z,47.16
2018-08-22T11:24:50.182Z,47.89
2018-08-22T11:28:11.531Z,46.64
2018-08-22T11:31:32.972Z,47.43
2018-08-22T11:34:48.197Z,47.09
2018-08-22T11:37:52.552Z,47.22
2018-08-22T11:40:56.821Z,46.93
2018-08-22T11:44:01.194Z,46.18
2018-08-22T11:47:05.623Z,46.09
2018-08-22T11:50:09.893Z,45.99
2018-08-22T11:53:14.372Z,45.76
2018-08-22T11:56:18.761Z,46.27
2018-08-22T11:59:23.082Z,47.48
2018-08-22T12:02:27.357Z,46.77
2018-08-22T12:05:31.701Z,45.80
2018-08-22T12:08:36.013Z,46.27
2018-08-22T12:11:40.744Z,46.33
2018-08-22T12:14:45.070Z,46.94
2018-08-22T12:17:49.405Z,45.99
2018-08-22T12:20:53.815Z,45.33
2018-08-22T12:23:58.165Z,44.99
2018-08-22T12:27:02.518Z,45.10
2018-08-22T12:30:06.795Z,45.27
2018-08-22T12:33:11.189Z,45.12
2018-08-22T12:36:32.120Z,44.82
2018-08-22T12:39:36.421Z,45.68
2018-08-22T12:42:40.728Z,44.21
2018-08-22T12:45:45.048Z,44.99
2018-08-22T12:48:49.397Z,45.80
2018-08-22T12:51:53.679Z,45.55
2018-08-22T12:54:58.006Z,45.12
2018-08-22T12:58:02.335Z,45.69
2018-08-22T13:01:07.071Z,45.01
2018-08-22T13:04:11.756Z,45.32
2018-08-22T13:07:16.029Z,45.92
2018-08-22T13:10:21.190Z,46.21
2018-08-22T13:13:25.432Z,46.19
2018-08-22T13:16:29.759Z,45.88
2018-08-22T13:19:34.101Z,46.65
2018-08-22T13:22:38.390Z,47.46
2018-08-22T13:25:42.718Z,46.50
2018-08-22T13:28:47.248Z,46.43
2018-08-22T13:31:51.595Z,46.03
2018-08-22T13:34:55.892Z,46.41
2018-08-22T13:38:00.204Z,45.03
2018-08-22T13:41:04.535Z,46.27
2018-08-22T13:44:09.015Z,46.04
2018-08-22T13:47:13.501Z,46.28
2018-08-22T13:50:17.810Z,45.43
2018-08-22T13:53:22.147Z,46.27
2018-08-22T13:56:26.466Z,45.82
2018-08-22T13:59:30.770Z,45.87
2018-08-22T14:02:35.100Z,45.03
2018-08-22T14:05:39.564Z,45.09
2018-08-22T14:08:43.843Z,45.10
2018-08-22T14:11:48.144Z,45.81
2018-08-22T14:14:52.490Z,44.44
2018-08-22T14:17:56.789Z,44.81
2018-08-22T14:21:01.107Z,44.23
2018-08-22T14:24:05.415Z,45.16
2018-08-22T14:27:09.768Z,44.22
2018-08-22T14:30:14.187Z,44.45
2018-08-22T14:33:18.733Z,45.73
2018-08-22T14:36:23.041Z,45.82
2018-08-22T14:39:27.505Z,45.28
2018-08-22T14:42:31.680Z,44.10
2018-08-22T14:45:36.003Z,44.63
2018-08-22T14:48:40.285Z,45.68
2018-08-22T14:51:44.584Z,46.04
2018-08-22T14:54:48.940Z,46.22
2018-08-22T14:57:53.203Z,45.97
2018-08-22T15:00:57.569Z,45.31
2018-08-22T15:04:01.873Z,44.21
2018-08-22T15:07:06.392Z,44.93
2018-08-22T15:10:14.534Z,44.81
2018-08-22T15:13:18.824Z,45.36
2018-08-22T15:16:23.132Z,44.28
2018-08-22T15:19:27.464Z,45.09
2018-08-22T15:22:32.069Z,44.04
2018-08-22T15:25:36.687Z,44.28
2018-08-22T15:28:40.952Z,44.34
2018-08-22T15:31:45.254Z,44.27
2018-08-22T15:34:54.839Z,42.80
2018-08-22T15:37:59.219Z,41.58
2018-08-22T15:41:03.611Z,43.04
2018-08-22T15:44:07.874Z,41.86
2018-08-22T15:47:12.768Z,41.97
2018-08-22T15:50:17.038Z,41.25
2018-08-22T15:53:21.363Z,41.79
2018-08-22T15:56:25.748Z,42.02
2018-08-22T15:59:30.071Z,43.54
2018-08-22T16:02:35.041Z,44.30
2018-08-22T16:05:40.492Z,43.77
2018-08-22T16:08:44.918Z,44.50
2018-08-22T16:11:49.189Z,44.26
2018-08-22T16:14:53.433Z,44.41
2018-08-22T16:17:58.097Z,46.41
2018-08-22T16:21:03.119Z,46.34
2018-08-22T16:24:07.673Z,47.89
2018-08-22T16:27:12.003Z,48.10
2018-08-22T16:30:16.292Z,47.83
2018-08-22T16:33:20.601Z,49.30
2018-08-22T16:36:28.987Z,49.40
2018-08-22T16:39:41.728Z,49.87
2018-08-22T16:42:46.180Z,49.49
2018-08-22T16:45:55.380Z,49.61
2018-08-22T16:48:59.751Z,49.53
2018-08-22T16:52:04.207Z,48.71
2018-08-22T16:55:20.434Z,48.61
2018-08-22T16:58:24.829Z,49.04
2018-08-22T17:01:29.589Z,48.55
2018-08-22T17:04:33.946Z,48.36
2018-08-22T17:07:38.311Z,49.28
2018-08-22T17:10:59.260Z,50.35
2018-08-22T17:14:03.613Z,50.61
2018-08-22T17:17:07.880Z,51.56
2018-08-22T17:20:12.237Z,51.40
2018-08-22T17:23:16.564Z,51.09
2018-08-22T17:26:22.991Z,52.71
2018-08-22T17:29:27.341Z,54.15
2018-08-22T17:32:31.636Z,54.89
2018-08-22T17:35:41.162Z,55.32
2018-08-22T17:38:48.253Z,56.98
2018-08-22T17:41:52.678Z,56.83
2018-08-22T17:44:57.002Z,57.70
2018-08-22T17:48:02.456Z,58.39
2018-08-22T17:51:07.022Z,58.97
2018-08-22T17:54:11.413Z,58.75
2018-08-22T17:57:23.425Z,60.16
2018-08-22T18:00:30.123Z,60.86
2018-08-22T18:03:34.532Z,61.38
2018-08-22T18:06:38.846Z,61.63
2018-08-22T18:09:43.148Z,61.86
2018-08-22T18:12:47.448Z,62.79
2018-08-22T18:15:51.766Z,63.54
2018-08-22T18:18:56.158Z,64.30
2018-08-22T18:22:00.423Z,64.57
2018-08-22T18:25:04.977Z,65.66
2018-08-22T18:28:09.269Z,66.58
2018-08-22T18:31:13.580Z,66.34
2018-08-22T18:34:17.935Z,67.17
2018-08-22T18:37:22.223Z,68.03
2018-08-22T18:40:30.604Z,68.10
2018-08-22T18:43:34.988Z,69.33
2018-08-22T18:46:39.408Z,69.67
2018-08-22T18:49:43.860Z,70.75
2018-08-22T18:52:50.634Z,70.45
2018-08-22T18:56:13.891Z,70.56
2018-08-22T18:59:26.706Z,72.10
2018-08-22T19:02:31.278Z,72.59
2018-08-22T19:05:36.822Z,73.21
2018-08-22T19:08:41.289Z,73.38
2018-08-22T19:11:46.535Z,74.37
2018-08-22T19:14:50.961Z,74.12
2018-08-22T19:17:55.372Z,74.95
2018-08-22T19:21:01.289Z,74.63
2018-08-22T19:24:06.723Z,75.05
2018-08-22T19:27:11.076Z,75.87
2018-08-22T19:30:15.115Z,76.16
2018-08-22T19:33:21.443Z,76.49
2018-08-22T19:36:26.605Z,76.71
2018-08-22T19:39:30.756Z,76.79
2018-08-22T19:42:37.182Z,76.82
2018-08-22T19:45:41.482Z,77.38
2018-08-22T19:48:45.826Z,77.97
2018-08-22T19:51:51.670Z,78.55
2018-08-22T19:54:57.646Z,78.60
2018-08-22T19:58:03.609Z,79.41
2018-08-22T20:01:09.173Z,79.98
2018-08-22T20:04:14.470Z,80.40
2018-08-22T20:07:20.861Z,81.19
2018-08-22T20:10:25.265Z,81.21
2018-08-22T20:13:54.165Z,81.36
2018-08-22T20:16:58.483Z,82.36
2018-08-22T20:20:02.633Z,82.66
2018-08-22T20:23:07.078Z,83.19
2018-08-22T20:26:11.430Z,83.26
2018-08-22T20:29:15.760Z,83.39
2018-08-22T20:32:24.737Z,83.14
2018-08-22T20:35:33.343Z,84.22
2018-08-22T20:38:37.715Z,84.19
2018-08-22T20:41:42.861Z,84.90
2018-08-22T20:44:47.701Z,85.72
2018-08-22T20:47:59.190Z,85.67
2018-08-22T20:51:03.500Z,87.17
2018-08-22T20:54:11.904Z,87.49
2018-08-22T20:57:16.203Z,87.82
2018-08-22T21:00:23.893Z,87.89
2018-08-22T21:03:28.254Z,89.10
2018-08-22T21:06:32.553Z,88.97
2018-08-22T21:09:36.933Z,89.28
2018-08-22T21:12:41.049Z,89.82
2018-08-22T21:15:45.455Z,89.64
2018-08-22T21:18:49.873Z,89.09
2018-08-22T21:21:54.301Z,89.50
2018-08-22T21:25:00.162Z,89.16
2018-08-22T21:28:04.441Z,89.60
2018-08-22T21:31:08.788Z,88.99
2018-08-22T21:34:18.353Z,89.13
2018-08-22T21:37:26.076Z,89.74
2018-08-22T21:40:30.599Z,90.70
2018-08-22T21:43:34.987Z,91.01
2018-08-22T21:46:39.282Z,91.50
2018-08-22T21:49:43.647Z,91.71
2018-08-22T21:52:59.327Z,92.22
2018-08-22T21:56:03.663Z,92.36
2018-08-22T21:59:08.485Z,92.82
2018-08-22T22:02:13.112Z,94.11
2018-08-22T22:05:21.587Z,94.28
2018-08-22T22:08:26.032Z,94.47
2018-08-22T22:11:30.284Z,94.19
2018-08-22T22:14:35.805Z,94.65
2018-08-22T22:17:40.205Z,95.13
2018-08-22T22:20:49.168Z,95.51
2018-08-22T22:23:53.401Z,96.37
2018-08-22T22:26:57.885Z,97.56
2018-08-22T22:30:05.013Z,97.71
2018-08-22T22:33:09.277Z,98.06
2018-08-22T22:36:13.675Z,98.24
2018-08-22T22:39:38.004Z,98.40
2018-08-22T22:42:42.258Z,98.68
2018-08-22T22:45:46.600Z,98.65
2018-08-22T22:48:50.897Z,99.19
2018-08-22T22:51:55.217Z,98.98
2018-08-22T22:55:01.727Z,100.00
2018-08-22T22:58:06.141Z,99.67
2018-08-22T23:01:10.405Z,99.35
2018-08-22T23:04:16.227Z,98.76
2018-08-22T23:07:23.283Z,99.15
2018-08-22T23:10:27.594Z,98.71
2018-08-22T23:13:31.726Z,98.96
2018-08-22T23:16:36.864Z,99.40
2018-08-22T23:19:41.188Z,99.00
2018-08-22T23:22:45.432Z,99.64
2018-08-22T23:25:49.877Z,100.00
2018-08-22T23:28:54.034Z,99.70
2018-08-22T23:31:58.315Z,99.79
2018-08-22T23:35:20.840Z,99.51
2018-08-22T23:38:35.813Z,100.00
2018-08-22T23:41:39.943Z,100.00
2018-08-22T23:44:45.259Z,99.95
2018-08-22T23:47:49.593Z,100.00
2018-08-22T23:50:59.540Z,100.00
2018-08-22T23:54:03.939Z,99.53
2018-08-22T23:57:08.258Z,99.56
